LOWS/SZG METAR and TAF weather

Enter ICAO airport designator
Station Type Date Time Source
LOWS METAR 2019/08/20 09:50 UTC NOAA

LOWS 200950Z 31007KT 270V340 9999 FEW025 SCT090 BKN120 21/17 Q1020 TEMPO SHRA


Station Type Date Time Source
LOWS Decoded METAR 2019/08/20 09:50 UTC NOAA

Salzburg-Flughafen, Austria (LOWS) 47-48N 013-00E 450M
Aug 20, 2019 - 05:50 AM EDT / 2019.08.20 0950 UTC
Wind: from the NW (310 degrees) at 8 MPH (7 KT) (direction variable):0
Visibility: greater than 7 mile(s):0
Sky conditions: mostly cloudy
Temperature: 69 F (21 C)
Dew Point: 62 F (17 C)
Relative Humidity: 77%
Pressure (altimeter): 30.12 in. Hg (1020 hPa)
ob: LOWS 200950Z 31007KT 270V340 9999 FEW025 SCT090 BKN120 21/17 Q1020 TEMPO SHRA
cycle: 10

Station Type Date Time Source
LOWS TAF 2019/08/20 06:21 UTC NOAA

TAF LOWS 200515Z 2006/2106 14005KT 9999 FEW035 BKN070 TX20/2011Z TN14/2104Z
BECMG 2006/2008 32006KT
TEMPO 2009/2014 34010KT -SHRA SCT020 BKN050
TEMPO 2014/2020 30015G25KT 4000 SHRA SCT020TCU BKN035
TEMPO 2020/2106 6000 -RA SCT012 BKN025 PROB30
TEMPO 2020/2103 29010KT 4000 RA BR SCT008 BKN012

Example: see airport list